Time;durP1;ratioP1;P1;durP2;ratioP2;P2;SDS_P1;SDS_P2;PMS_P1;PMS_P2;Temp;Humidity;BMP_temperature;BMP_pressure;BME280_temperature;BME280_humidity;BME280_pressure;Samples;Min_cycle;Max_cycle;Signal;HPM_P1;HPM_P2
2022/02/13 00:00:22;;;;;;;17.53;4.97;;;;;;;;;;5079219;28;20808;-74
2022/02/13 00:02:48;;;;;;;22.45;6.20;;;;;;;;;;5079850;28;20858;-74
2022/02/13 00:05:15;;;;;;;16.63;5.28;;;;;;;;;;5079967;28;20229;-75
2022/02/13 00:07:41;;;;;;;18.63;5.75;;;;;;;;;;5078881;28;20254;-74
2022/02/13 00:10:09;;;;;;;26.30;6.65;;;;;;;;;;5079751;28;20163;-74
2022/02/13 00:12:35;;;;;;;21.50;5.03;;;;;;;;;;5078970;28;20179;-74
2022/02/13 00:15:02;;;;;;;25.48;5.53;;;;;;;;;;5079183;28;20583;-72
2022/02/13 00:17:28;;;;;;;18.08;5.30;;;;;;;;;;5080212;28;20175;-72
2022/02/13 00:19:54;;;;;;;20.15;5.88;;;;;;;;;;5078650;28;20207;-72
2022/02/13 00:22:21;;;;;;;12.75;4.38;;;;;;;;;;5078469;28;20183;-73
2022/02/13 00:24:47;;;;;;;38.08;7.88;;;;;;;;;;5077517;28;20202;-73
2022/02/13 00:27:14;;;;;;;17.45;5.47;;;;;;;;;;5079878;28;20225;-73
2022/02/13 00:29:40;;;;;;;17.80;5.78;;;;;;;;;;5079576;28;20186;-72
2022/02/13 00:32:07;;;;;;;22.10;6.10;;;;;;;;;;5077740;28;20638;-73
2022/02/13 00:34:33;;;;;;;12.23;4.93;;;;;;;;;;5078083;28;20179;-73
2022/02/13 00:37:00;;;;;;;21.00;6.07;;;;;;;;;;5078132;28;20190;-73
2022/02/13 00:39:27;;;;;;;24.40;6.65;;;;;;;;;;5078776;28;20167;-73
2022/02/13 00:41:53;;;;;;;22.73;6.47;;;;;;;;;;5078130;28;20175;-73
2022/02/13 00:44:19;;;;;;;16.85;5.28;;;;;;;;;;5080912;28;20229;-74
2022/02/13 00:46:46;;;;;;;15.00;5.35;;;;;;;;;;5078044;28;20175;-74
2022/02/13 00:49:12;;;;;;;26.23;7.47;;;;;;;;;;5078298;28;20308;-74
2022/02/13 00:51:38;;;;;;;18.15;5.68;;;;;;;;;;5078955;28;20536;-74
2022/02/13 00:54:04;;;;;;;25.08;7.25;;;;;;;;;;5077813;28;20221;-74
2022/02/13 00:56:30;;;;;;;17.85;6.45;;;;;;;;;;5079975;28;20178;-74
2022/02/13 00:58:56;;;;;;;15.75;6.30;;;;;;;;;;5079188;28;20914;-74
2022/02/13 01:01:23;;;;;;;21.08;6.38;;;;;;;;;;5081564;28;20193;-74
2022/02/13 01:03:50;;;;;;;8.82;4.72;;;;;;;;;;5082509;28;20213;-74
2022/02/13 01:06:16;;;;;;;24.33;7.93;;;;;;;;;;5083963;28;20653;-74
2022/02/13 01:08:42;;;;;;;22.10;6.93;;;;;;;;;;5081679;28;20194;-74
2022/02/13 01:11:08;;;;;;;31.90;9.05;;;;;;;;;;5082294;28;20173;-74
2022/02/13 01:13:34;;;;;;;21.92;6.53;;;;;;;;;;5082073;28;20194;-74
2022/02/13 01:16:01;;;;;;;25.95;7.82;;;;;;;;;;5082272;28;20634;-74
2022/02/13 01:18:27;;;;;;;20.55;7.00;;;;;;;;;;5082568;28;20178;-74
2022/02/13 01:20:53;;;;;;;19.42;6.13;;;;;;;;;;5081037;28;20265;-75
2022/02/13 01:23:20;;;;;;;22.10;6.40;;;;;;;;;;5081834;28;20190;-74
2022/02/13 01:25:46;;;;;;;17.73;7.30;;;;;;;;;;5081199;28;20797;-74
2022/02/13 01:28:12;;;;;;;31.27;8.48;;;;;;;;;;5082911;28;20182;-74
2022/02/13 01:30:40;;;;;;;22.33;7.13;;;;;;;;;;5082642;28;20270;-73
2022/02/13 01:33:06;;;;;;;20.17;6.25;;;;;;;;;;5077277;28;20171;-74
2022/02/13 01:35:32;;;;;;;15.68;6.25;;;;;;;;;;5087003;28;20179;-74
2022/02/13 01:37:59;;;;;;;31.30;8.75;;;;;;;;;;5077830;28;20235;-74
2022/02/13 01:40:25;;;;;;;13.88;5.70;;;;;;;;;;5082789;28;20179;-74
2022/02/13 01:42:51;;;;;;;32.85;9.30;;;;;;;;;;5080520;28;20175;-74
2022/02/13 01:45:17;;;;;;;28.98;7.65;;;;;;;;;;5081331;28;20577;-73
2022/02/13 01:47:43;;;;;;;19.15;6.45;;;;;;;;;;5081759;28;20174;-73
2022/02/13 01:50:10;;;;;;;27.10;7.55;;;;;;;;;;5080558;28;20190;-73
2022/02/13 01:52:39;;;;;;;28.58;8.52;;;;;;;;;;5081265;28;20538;-74
2022/02/13 01:55:06;;;;;;;27.23;7.82;;;;;;;;;;5082786;28;20190;-74
2022/02/13 01:57:32;;;;;;;33.95;7.95;;;;;;;;;;5081107;28;20186;-74
2022/02/13 01:59:59;;;;;;;19.70;6.28;;;;;;;;;;5083296;28;20765;-74
2022/02/13 02:02:25;;;;;;;32.08;7.47;;;;;;;;;;5080839;28;20196;-74
2022/02/13 02:04:53;;;;;;;18.23;6.10;;;;;;;;;;5080727;28;20199;-74
2022/02/13 02:07:20;;;;;;;19.73;6.60;;;;;;;;;;5079324;28;20262;-74
2022/02/13 02:09:46;;;;;;;18.63;6.40;;;;;;;;;;5082080;28;20179;-75
2022/02/13 02:12:14;;;;;;;22.67;7.97;;;;;;;;;;5080445;28;20189;-74
2022/02/13 02:14:40;;;;;;;17.27;5.97;;;;;;;;;;5078154;28;20268;-74
2022/02/13 02:17:06;;;;;;;28.92;7.45;;;;;;;;;;5080849;28;20649;-73
2022/02/13 02:19:32;;;;;;;20.30;6.75;;;;;;;;;;5081845;28;20197;-73
2022/02/13 02:21:59;;;;;;;23.83;7.60;;;;;;;;;;5078163;28;20179;-73
2022/02/13 02:24:25;;;;;;;11.27;5.30;;;;;;;;;;5081852;28;20203;-73
2022/02/13 02:26:51;;;;;;;26.33;7.43;;;;;;;;;;5082074;28;20167;-73
2022/02/13 02:29:17;;;;;;;23.27;6.85;;;;;;;;;;5081607;28;20412;-73
2022/02/13 02:31:43;;;;;;;18.25;6.65;;;;;;;;;;5079552;28;20170;-75
2022/02/13 02:34:09;;;;;;;23.77;7.70;;;;;;;;;;5081348;28;20456;-74
2022/02/13 02:36:36;;;;;;;22.35;7.20;;;;;;;;;;5079197;28;20189;-74
2022/02/13 02:39:02;;;;;;;22.30;7.50;;;;;;;;;;5080820;28;20258;-74
2022/02/13 02:41:30;;;;;;;16.70;6.43;;;;;;;;;;5078480;28;20187;-74
2022/02/13 02:43:56;;;;;;;17.55;6.50;;;;;;;;;;5080184;28;20217;-74
2022/02/13 02:46:22;;;;;;;21.65;7.55;;;;;;;;;;5081464;28;20170;-73
2022/02/13 02:48:48;;;;;;;25.73;7.22;;;;;;;;;;5080896;28;20182;-73
2022/02/13 02:51:14;;;;;;;20.33;6.45;;;;;;;;;;5078926;28;20436;-73
2022/02/13 02:53:42;;;;;;;26.30;7.47;;;;;;;;;;5079690;28;20190;-73
2022/02/13 02:56:09;;;;;;;18.83;7.47;;;;;;;;;;5080047;28;20175;-73
2022/02/13 02:58:35;;;;;;;20.70;6.97;;;;;;;;;;5079958;28;20556;-72
2022/02/13 03:01:03;;;;;;;21.70;7.70;;;;;;;;;;5080835;28;20183;-74
2022/02/13 03:03:32;;;;;;;20.23;6.80;;;;;;;;;;5080464;28;20178;-74
2022/02/13 03:05:58;;;;;;;24.13;6.85;;;;;;;;;;5079736;28;20177;-74
2022/02/13 03:08:24;;;;;;;18.85;6.63;;;;;;;;;;5079488;28;20257;-74
2022/02/13 03:10:52;;;;;;;29.52;8.07;;;;;;;;;;5081183;28;20181;-74
2022/02/13 03:13:20;;;;;;;22.17;7.90;;;;;;;;;;5080965;28;20568;-74
2022/02/13 03:15:47;;;;;;;26.67;8.55;;;;;;;;;;5079143;28;20200;-75
2022/02/13 03:18:17;;;;;;;22.55;7.93;;;;;;;;;;5078851;28;20288;-74
2022/02/13 03:20:44;;;;;;;23.05;7.95;;;;;;;;;;5079089;28;20223;-74
2022/02/13 03:23:10;;;;;;;24.85;8.15;;;;;;;;;;5079294;28;20175;-74
2022/02/13 03:25:36;;;;;;;24.95;7.60;;;;;;;;;;5080589;28;20294;-74
2022/02/13 03:28:03;;;;;;;22.08;8.50;;;;;;;;;;5079907;28;20181;-74
2022/02/13 03:30:30;;;;;;;28.05;7.75;;;;;;;;;;5077244;28;20182;-73
2022/02/13 03:32:56;;;;;;;32.70;9.52;;;;;;;;;;5077741;28;20641;-72
2022/02/13 03:35:23;;;;;;;28.33;8.05;;;;;;;;;;5079304;28;20205;-73
2022/02/13 03:37:50;;;;;;;24.35;7.47;;;;;;;;;;5080034;28;20645;-73
2022/02/13 03:40:17;;;;;;;27.60;9.00;;;;;;;;;;5079177;28;20262;-73
2022/02/13 03:42:43;;;;;;;19.88;7.45;;;;;;;;;;5079635;28;20174;-73
2022/02/13 03:45:10;;;;;;;20.88;7.72;;;;;;;;;;5080164;28;20592;-73
2022/02/13 03:47:36;;;;;;;31.52;9.32;;;;;;;;;;5080073;28;20168;-73
2022/02/13 03:50:02;;;;;;;23.83;8.38;;;;;;;;;;5078435;28;20188;-73
2022/02/13 03:52:30;;;;;;;17.52;7.40;;;;;;;;;;5078902;28;20253;-73
2022/02/13 03:54:56;;;;;;;32.72;9.95;;;;;;;;;;5078906;28;20732;-72
2022/02/13 03:57:23;;;;;;;30.90;9.70;;;;;;;;;;5080179;28;20178;-73
2022/02/13 03:59:49;;;;;;;19.58;7.85;;;;;;;;;;5076846;28;20228;-73
2022/02/13 04:02:16;;;;;;;20.92;6.45;;;;;;;;;;5077709;28;20175;-72
2022/02/13 04:04:42;;;;;;;24.05;7.35;;;;;;;;;;5077722;28;20202;-73
2022/02/13 04:07:09;;;;;;;26.75;8.57;;;;;;;;;;5079541;28;20654;-73
2022/02/13 04:09:35;;;;;;;24.85;8.15;;;;;;;;;;5080142;28;21476;-73
2022/02/13 04:12:02;;;;;;;23.35;8.43;;;;;;;;;;5078847;28;20206;-73
2022/02/13 04:14:28;;;;;;;24.00;8.68;;;;;;;;;;5077815;28;20242;-73
2022/02/13 04:16:54;;;;;;;31.02;8.63;;;;;;;;;;5080327;28;20175;-72
2022/02/13 04:19:20;;;;;;;17.05;7.00;;;;;;;;;;5078586;28;20187;-73
2022/02/13 04:21:46;;;;;;;14.70;6.28;;;;;;;;;;5079560;28;20190;-72
2022/02/13 04:24:12;;;;;;;24.55;8.70;;;;;;;;;;5079090;28;20289;-74
2022/02/13 04:26:40;;;;;;;22.17;7.28;;;;;;;;;;5078828;28;20167;-75
2022/02/13 04:29:07;;;;;;;20.35;7.45;;;;;;;;;;5077107;28;20171;-74
2022/02/13 04:31:33;;;;;;;21.10;7.25;;;;;;;;;;5081969;28;20181;-72
2022/02/13 04:33:59;;;;;;;25.30;7.95;;;;;;;;;;5082704;28;20227;-73
2022/02/13 04:36:25;;;;;;;17.92;6.82;;;;;;;;;;5082518;28;20182;-72
2022/02/13 04:38:51;;;;;;;26.05;8.20;;;;;;;;;;5082981;28;20547;-73
2022/02/13 04:41:17;;;;;;;21.60;7.30;;;;;;;;;;5082003;28;20641;-73
2022/02/13 04:43:44;;;;;;;16.85;6.07;;;;;;;;;;5083587;28;20212;-73
2022/02/13 04:46:10;;;;;;;36.40;9.02;;;;;;;;;;5082830;28;20171;-72
2022/02/13 04:48:36;;;;;;;26.88;8.20;;;;;;;;;;5082457;28;20178;-75
2022/02/13 04:51:02;;;;;;;28.20;8.32;;;;;;;;;;5082505;28;20256;-74
2022/02/13 04:53:28;;;;;;;25.45;8.15;;;;;;;;;;5083912;28;20186;-74
2022/02/13 04:55:54;;;;;;;20.08;7.55;;;;;;;;;;5083453;28;20541;-74
2022/02/13 04:58:20;;;;;;;20.20;6.53;;;;;;;;;;5083960;28;20244;-74
2022/02/13 05:00:48;;;;;;;27.23;8.80;;;;;;;;;;5081285;28;20171;-74
2022/02/13 05:03:14;;;;;;;20.20;8.05;;;;;;;;;;5083349;28;20547;-74
2022/02/13 05:05:42;;;;;;;18.45;7.30;;;;;;;;;;5082551;28;20214;-74
2022/02/13 05:08:09;;;;;;;25.00;7.78;;;;;;;;;;5081894;28;20179;-74
2022/02/13 05:10:35;;;;;;;23.25;7.88;;;;;;;;;;5083231;28;20670;-74
2022/02/13 05:13:01;;;;;;;25.77;7.55;;;;;;;;;;5081990;28;20870;-74
2022/02/13 05:15:27;;;;;;;15.27;6.35;;;;;;;;;;5081748;28;20179;-74
2022/02/13 05:17:54;;;;;;;22.83;8.02;;;;;;;;;;5083349;28;20269;-72
2022/02/13 05:20:20;;;;;;;28.23;7.88;;;;;;;;;;5082092;28;20276;-72
2022/02/13 05:22:48;;;;;;;18.58;7.50;;;;;;;;;;5081758;28;20178;-73
2022/02/13 05:25:14;;;;;;;22.30;8.63;;;;;;;;;;5081416;28;20198;-73
2022/02/13 05:27:41;;;;;;;23.90;8.10;;;;;;;;;;5082298;28;20539;-73
2022/02/13 05:30:08;;;;;;;27.27;8.82;;;;;;;;;;5081276;28;20194;-73
2022/02/13 05:32:35;;;;;;;18.30;7.78;;;;;;;;;;5080500;28;20167;-74
2022/02/13 05:35:01;;;;;;;26.33;8.95;;;;;;;;;;5081592;28;20190;-74
2022/02/13 05:37:30;;;;;;;22.13;8.27;;;;;;;;;;5082415;28;20269;-74
2022/02/13 05:39:56;;;;;;;36.70;10.20;;;;;;;;;;5081548;28;20191;-74
2022/02/13 05:42:24;;;;;;;18.73;7.00;;;;;;;;;;5080823;28;20179;-74
2022/02/13 05:44:51;;;;;;;23.63;9.60;;;;;;;;;;5081990;28;20190;-74
2022/02/13 05:47:19;;;;;;;22.95;8.55;;;;;;;;;;5082300;28;20189;-73
2022/02/13 05:49:45;;;;;;;38.20;10.70;;;;;;;;;;5078488;28;20193;-72
2022/02/13 05:52:11;;;;;;;33.42;9.13;;;;;;;;;;5080854;28;20617;-72
2022/02/13 05:54:38;;;;;;;20.05;8.13;;;;;;;;;;5081927;28;20207;-73
2022/02/13 05:57:04;;;;;;;28.52;9.10;;;;;;;;;;5082605;28;20182;-72
2022/02/13 05:59:30;;;;;;;17.13;7.63;;;;;;;;;;5082339;28;20190;-72
2022/02/13 06:01:57;;;;;;;27.90;9.10;;;;;;;;;;5081559;28;20178;-73
2022/02/13 06:04:23;;;;;;;44.70;13.00;;;;;;;;;;5080754;28;20210;-74
2022/02/13 06:06:51;;;;;;;24.60;9.05;;;;;;;;;;5080396;28;20546;-74
2022/02/13 06:09:18;;;;;;;21.40;7.25;;;;;;;;;;5082283;28;20187;-74
2022/02/13 06:11:44;;;;;;;22.17;7.50;;;;;;;;;;5079523;28;20178;-74
2022/02/13 06:14:11;;;;;;;29.27;8.93;;;;;;;;;;5080824;28;20175;-74
2022/02/13 06:16:37;;;;;;;27.27;8.13;;;;;;;;;;5079420;28;20175;-74
2022/02/13 06:19:03;;;;;;;21.40;8.13;;;;;;;;;;5081276;28;20228;-75
2022/02/13 06:21:30;;;;;;;17.73;7.65;;;;;;;;;;5080534;28;20587;-75
2022/02/13 06:23:57;;;;;;;24.15;8.77;;;;;;;;;;5081297;28;20262;-74
2022/02/13 06:26:23;;;;;;;26.05;8.45;;;;;;;;;;5080543;28;20163;-74
2022/02/13 06:28:50;;;;;;;19.05;7.80;;;;;;;;;;5080465;28;20259;-74
2022/02/13 06:31:16;;;;;;;18.73;6.70;;;;;;;;;;5080021;28;20166;-74
2022/02/13 06:33:42;;;;;;;14.63;6.25;;;;;;;;;;5078080;28;20171;-72
2022/02/13 06:36:09;;;;;;;13.20;7.00;;;;;;;;;;5075118;28;20548;-73
2022/02/13 06:38:35;;;;;;;18.63;7.28;;;;;;;;;;5075797;28;20523;-73
2022/02/13 06:41:01;;;;;;;39.17;8.23;;;;;;;;;;5081087;28;20179;-73
2022/02/13 06:43:27;;;;;;;22.00;7.82;;;;;;;;;;5079327;28;20220;-72
2022/02/13 06:45:53;;;;;;;29.25;8.80;;;;;;;;;;5079650;28;20237;-73
2022/02/13 06:48:21;;;;;;;22.95;8.73;;;;;;;;;;5079201;28;20277;-73
2022/02/13 06:50:48;;;;;;;13.38;6.88;;;;;;;;;;5086364;28;20530;-72
2022/02/13 06:53:15;;;;;;;24.85;8.07;;;;;;;;;;5079563;28;20660;-73
2022/02/13 06:55:41;;;;;;;20.33;8.40;;;;;;;;;;5078923;28;20235;-73
2022/02/13 06:58:07;;;;;;;31.10;9.57;;;;;;;;;;5079756;28;20178;-73
2022/02/13 07:00:33;;;;;;;26.20;8.85;;;;;;;;;;5079437;28;20661;-73
2022/02/13 07:02:59;;;;;;;29.73;9.20;;;;;;;;;;5079296;28;20273;-74
2022/02/13 07:05:27;;;;;;;21.48;7.90;;;;;;;;;;5078159;28;21467;-74
2022/02/13 07:07:55;;;;;;;9.63;5.28;;;;;;;;;;5083802;28;20293;-74
2022/02/13 07:10:21;;;;;;;16.27;7.20;;;;;;;;;;5075273;28;20638;-75
2022/02/13 07:12:48;;;;;;;14.18;7.20;;;;;;;;;;5077792;28;20183;-75
2022/02/13 07:15:14;;;;;;;21.45;8.38;;;;;;;;;;5081697;28;20174;-75
2022/02/13 07:17:40;;;;;;;14.32;7.22;;;;;;;;;;5079797;28;20603;-74
2022/02/13 07:20:07;;;;;;;25.52;9.82;;;;;;;;;;5073093;28;20572;-74
2022/02/13 07:22:33;;;;;;;17.63;7.85;;;;;;;;;;5073200;28;20182;-74
2022/02/13 07:24:59;;;;;;;19.55;8.07;;;;;;;;;;5073183;28;20712;-74
2022/02/13 07:27:25;;;;;;;16.50;7.65;;;;;;;;;;5073277;28;20173;-74
2022/02/13 07:29:51;;;;;;;17.13;7.70;;;;;;;;;;5086370;28;20216;-74
2022/02/13 07:32:18;;;;;;;16.30;7.20;;;;;;;;;;5073278;28;20587;-74
2022/02/13 07:34:44;;;;;;;31.27;8.00;;;;;;;;;;5073312;28;20183;-73
2022/02/13 07:37:10;;;;;;;13.68;7.25;;;;;;;;;;5073081;28;20535;-73
2022/02/13 07:39:36;;;;;;;18.98;7.65;;;;;;;;;;5076842;28;20186;-73
2022/02/13 07:42:04;;;;;;;23.65;8.23;;;;;;;;;;5072820;28;20649;-73
2022/02/13 07:44:30;;;;;;;22.80;7.82;;;;;;;;;;5071666;28;20673;-73
2022/02/13 07:46:56;;;;;;;23.13;8.57;;;;;;;;;;5075169;28;20179;-73
2022/02/13 07:49:22;;;;;;;17.48;8.15;;;;;;;;;;5079329;28;20231;-73
2022/02/13 07:51:49;;;;;;;28.10;8.82;;;;;;;;;;5072999;28;20626;-73
2022/02/13 07:54:15;;;;;;;18.42;7.45;;;;;;;;;;5072771;28;20570;-73
2022/02/13 07:56:42;;;;;;;20.25;7.70;;;;;;;;;;5078474;28;20179;-73
2022/02/13 07:59:09;;;;;;;20.10;8.48;;;;;;;;;;5073527;28;20197;-73
2022/02/13 08:01:36;;;;;;;22.65;7.50;;;;;;;;;;5082318;28;20539;-73
2022/02/13 08:04:02;;;;;;;18.08;8.30;;;;;;;;;;5079652;28;20197;-73
2022/02/13 08:06:28;;;;;;;13.57;7.22;;;;;;;;;;5072338;28;20589;-73
2022/02/13 08:08:54;;;;;;;23.08;10.00;;;;;;;;;;5073028;28;20258;-73
2022/02/13 08:11:20;;;;;;;21.90;7.68;;;;;;;;;;5092770;28;20607;-73
2022/02/13 08:13:46;;;;;;;18.00;8.50;;;;;;;;;;5092381;28;20236;-73
2022/02/13 08:16:14;;;;;;;17.98;7.80;;;;;;;;;;5071254;28;20581;-73
2022/02/13 08:18:44;;;;;;;18.50;8.02;;;;;;;;;;5073170;28;20323;-74
2022/02/13 08:21:11;;;;;;;28.70;9.80;;;;;;;;;;5075109;28;20170;-75
2022/02/13 08:23:38;;;;;;;28.80;10.65;;;;;;;;;;5079101;28;20679;-75
2022/02/13 08:26:04;;;;;;;26.75;11.18;;;;;;;;;;5077840;28;20233;-75
2022/02/13 08:28:32;;;;;;;16.15;8.75;;;;;;;;;;5083624;28;20171;-75
2022/02/13 08:30:58;;;;;;;22.35;9.52;;;;;;;;;;5084682;28;20266;-75
2022/02/13 08:33:25;;;;;;;22.55;9.90;;;;;;;;;;5082792;28;20322;-73
2022/02/13 08:35:52;;;;;;;21.08;9.15;;;;;;;;;;5082474;28;20179;-73
2022/02/13 08:38:18;;;;;;;24.48;10.88;;;;;;;;;;5088956;28;20198;-73
2022/02/13 08:40:44;;;;;;;24.67;9.52;;;;;;;;;;5087016;28;20182;-73
2022/02/13 08:43:10;;;;;;;22.13;11.63;;;;;;;;;;5075955;28;20182;-73
2022/02/13 08:45:37;;;;;;;24.93;10.00;;;;;;;;;;5079523;28;20467;-73
2022/02/13 08:48:04;;;;;;;22.33;10.45;;;;;;;;;;5072890;28;20425;-73
2022/02/13 08:50:30;;;;;;;20.35;9.45;;;;;;;;;;5079713;28;20190;-75
2022/02/13 08:52:58;;;;;;;33.45;11.90;;;;;;;;;;5071851;28;20228;-75
2022/02/13 08:55:24;;;;;;;20.20;11.05;;;;;;;;;;5073904;28;20191;-75
2022/02/13 08:57:50;;;;;;;34.97;11.90;;;;;;;;;;5085535;28;20269;-75
2022/02/13 09:00:17;;;;;;;30.45;12.85;;;;;;;;;;5070929;28;20190;-75
2022/02/13 09:02:45;;;;;;;26.70;12.00;;;;;;;;;;5071973;28;20187;-75
2022/02/13 09:05:12;;;;;;;18.20;9.77;;;;;;;;;;5072356;28;20202;-75
2022/02/13 09:07:39;;;;;;;36.55;13.45;;;;;;;;;;5073442;28;20225;-75
2022/02/13 09:10:06;;;;;;;30.63;11.27;;;;;;;;;;5080568;28;20258;-75
2022/02/13 09:12:32;;;;;;;27.67;12.55;;;;;;;;;;5072221;28;20175;-75
2022/02/13 09:14:58;;;;;;;18.05;9.55;;;;;;;;;;5072011;28;20167;-75
2022/02/13 09:17:25;;;;;;;22.65;10.75;;;;;;;;;;5071999;28;20175;-75
2022/02/13 09:19:51;;;;;;;18.23;9.35;;;;;;;;;;5080040;28;20262;-75
2022/02/13 09:22:17;;;;;;;36.20;12.05;;;;;;;;;;5075319;28;20175;-75
2022/02/13 09:24:43;;;;;;;27.67;11.57;;;;;;;;;;5075058;28;20696;-75
2022/02/13 09:27:10;;;;;;;24.85;10.50;;;;;;;;;;5076590;28;20192;-77
2022/02/13 09:29:36;;;;;;;23.83;10.80;;;;;;;;;;5082381;28;20170;-76
2022/02/13 09:32:03;;;;;;;29.05;11.45;;;;;;;;;;5075409;28;20300;-75
2022/02/13 09:34:29;;;;;;;24.80;10.95;;;;;;;;;;5075439;28;20324;-73
2022/02/13 09:36:56;;;;;;;14.23;3.83;;;;;;;;;;5075033;28;20633;-73
2022/02/13 09:39:22;;;;;;;11.23;5.78;;;;;;;;;;5088705;28;20173;-73
2022/02/13 09:41:49;;;;;;;14.82;6.30;;;;;;;;;;5075987;28;20178;-74
2022/02/13 09:44:17;;;;;;;18.25;6.47;;;;;;;;;;5074765;28;20203;-74
2022/02/13 09:46:43;;;;;;;10.25;4.80;;;;;;;;;;5074814;28;20189;-73
2022/02/13 09:49:09;;;;;;;8.23;3.35;;;;;;;;;;5076279;28;20539;-73
2022/02/13 09:51:36;;;;;;;22.73;6.63;;;;;;;;;;5079819;28;20175;-73
2022/02/13 09:54:03;;;;;;;31.85;6.95;;;;;;;;;;5080282;28;20992;-73
2022/02/13 09:56:29;;;;;;;37.05;8.75;;;;;;;;;;5082464;28;20257;-73
2022/02/13 09:58:55;;;;;;;23.08;6.38;;;;;;;;;;5083797;28;20182;-78
2022/02/13 10:01:34;;;;;;;22.25;6.97;;;;;;;;;;5084427;28;20830;-73
2022/02/13 10:04:00;;;;;;;11.90;5.22;;;;;;;;;;5078460;28;20256;-74
2022/02/13 10:06:26;;;;;;;18.77;5.88;;;;;;;;;;5081617;28;20167;-73
2022/02/13 10:08:54;;;;;;;56.38;10.45;;;;;;;;;;5078943;28;20667;-74
2022/02/13 10:11:39;;;;;;;13.95;5.47;;;;;;;;;;5088933;28;20208;-73
2022/02/13 10:14:12;;;;;;;16.43;5.70;;;;;;;;;;5077785;28;20171;-73
2022/02/13 10:16:41;;;;;;;11.03;4.90;;;;;;;;;;5077684;28;20448;-73
2022/02/13 10:19:19;;;;;;;18.43;7.00;;;;;;;;;;5082988;28;20471;-74
2022/02/13 10:21:50;;;;;;;12.33;4.70;;;;;;;;;;5079965;28;20987;-74
2022/02/13 10:24:26;;;;;;;26.50;6.73;;;;;;;;;;5074809;28;20449;-73
2022/02/13 10:27:11;;;;;;;16.73;6.23;;;;;;;;;;5079134;28;20424;-73
2022/02/13 10:29:42;;;;;;;15.83;6.27;;;;;;;;;;5079881;28;20404;-73
2022/02/13 10:32:14;;;;;;;18.47;5.73;;;;;;;;;;5074142;28;20436;-73
2022/02/13 10:34:40;;;;;;;21.83;5.23;;;;;;;;;;5081912;28;20443;-73
2022/02/13 10:37:07;;;;;;;11.67;5.00;;;;;;;;;;5079162;28;20816;-73
2022/02/13 10:39:43;;;;;;;18.67;5.73;;;;;;;;;;5073990;28;20401;-79
2022/02/13 10:42:11;;;;;;;31.23;8.23;;;;;;;;;;5076183;28;20460;-77
2022/02/13 10:44:37;;;;;;;19.23;5.97;;;;;;;;;;5075793;28;20459;-76
2022/02/13 10:47:03;;;;;;;12.60;5.37;;;;;;;;;;5073935;28;20406;-77
2022/02/13 10:49:32;;;;;;;16.00;6.20;;;;;;;;;;5073765;28;20409;-76
2022/02/13 10:51:59;;;;;;;29.67;7.63;;;;;;;;;;5073703;28;20413;-79
2022/02/13 10:54:25;;;;;;;13.47;5.20;;;;;;;;;;5073608;28;20445;-84
2022/02/13 10:56:51;;;;;;;12.30;5.83;;;;;;;;;;5078668;28;20483;-83
2022/02/13 10:59:18;;;;;;;17.10;6.27;;;;;;;;;;5076005;28;20766;-84
2022/02/13 11:01:47;;;;;;;16.87;6.23;;;;;;;;;;5082729;28;20413;-82
2022/02/13 11:04:14;;;;;;;10.87;4.97;;;;;;;;;;5084701;28;20460;-83
2022/02/13 11:06:40;;;;;;;10.20;4.97;;;;;;;;;;5073833;28;20424;-73
2022/02/13 11:09:16;;;;;;;13.07;5.70;;;;;;;;;;5077533;28;20500;-79
2022/02/13 11:11:43;;;;;;;16.07;7.10;;;;;;;;;;5073373;28;20442;-76
2022/02/13 11:14:23;;;;;;;19.20;6.80;;;;;;;;;;5074656;28;20440;-77
2022/02/13 11:16:49;;;;;;;12.77;6.37;;;;;;;;;;5073937;28;20412;-77
2022/02/13 11:19:16;;;;;;;12.13;6.20;;;;;;;;;;5073298;28;20496;-72
2022/02/13 11:21:43;;;;;;;24.00;7.37;;;;;;;;;;5077577;28;20412;-74
2022/02/13 11:24:23;;;;;;;16.23;6.40;;;;;;;;;;5072859;28;20409;-74
2022/02/13 11:26:49;;;;;;;20.53;7.20;;;;;;;;;;5073060;28;20401;-75
2022/02/13 11:29:16;;;;;;;23.57;6.60;;;;;;;;;;5077731;28;20424;-76
2022/02/13 11:31:54;;;;;;;18.00;7.20;;;;;;;;;;5076966;28;20470;-75
2022/02/13 11:34:23;;;;;;;18.97;7.27;;;;;;;;;;5073207;28;20408;-74
2022/02/13 11:37:08;;;;;;;26.97;7.63;;;;;;;;;;5082069;28;20417;-74
2022/02/13 11:39:35;;;;;;;20.37;6.87;;;;;;;;;;5079724;28;20410;-76
2022/02/13 11:42:03;;;;;;;17.73;7.50;;;;;;;;;;5076910;28;20803;-74
2022/02/13 11:44:41;;;;;;;16.33;6.93;;;;;;;;;;5082790;28;20480;-74
2022/02/13 11:47:09;;;;;;;22.53;8.63;;;;;;;;;;5072797;28;20441;-74
2022/02/13 11:50:11;;;;;;;22.90;6.87;;;8.10;1.00;;;;;;5073188;28;20434;-74
2022/02/13 11:52:54;;;;;;;13.73;6.20;;;8.30;1.00;;;;;;5083436;28;20412;-74
2022/02/13 11:55:20;;;;;;;20.83;6.60;;;;;;;;;;5092663;28;20447;-72
2022/02/13 11:57:58;;;;;;;22.63;7.73;;;;;;;;;;5079294;28;20456;-72
2022/02/13 12:00:38;;;;;;;24.83;7.50;;;;;;;;;;5080827;28;20447;-72
2022/02/13 12:03:15;;;;;;;15.13;6.87;;;;;;;;;;5089619;28;20404;-75
2022/02/13 12:05:41;;;;;;;12.73;5.37;;;;;;;;;;5072669;28;20453;-75
2022/02/13 12:08:07;;;;;;;24.73;7.00;;;;;;;;;;5074061;28;20409;-72
2022/02/13 12:10:36;;;;;;;20.20;6.70;;;;;;;;;;5080752;28;20409;-72
2022/02/13 12:13:18;;;;;;;15.80;5.47;;;;;;;;;;5078509;28;20428;-72
2022/02/13 12:15:52;;;;;;;23.47;7.13;;;;;;;;;;5078802;28;20421;-72
2022/02/13 12:18:18;;;;;;;14.33;5.60;;;;;;;;;;5075775;28;20423;-72
2022/02/13 12:20:44;;;;;;;26.03;7.00;;;;;;;;;;5072447;28;20441;-72
2022/02/13 12:23:12;;;;;;;17.63;5.77;;;;;;;;;;5073040;28;20417;-74
2022/02/13 12:25:38;;;;;;;19.10;6.70;;;;;;;;;;5073156;28;20543;-74
2022/02/13 12:28:06;;;;;;;22.60;6.53;;;;;;;;;;5072343;28;20413;-74
2022/02/13 12:30:32;;;;;;;33.53;7.53;;;;;;;;;;5085706;28;20496;-75
2022/02/13 12:33:00;;;;;;;16.03;6.30;;;9.50;1.00;;;;;;5077086;28;20415;-75
2022/02/13 12:35:28;;;;;;;13.37;5.70;;;;;;;;;;5096754;28;20426;-74
2022/02/13 12:37:55;;;;;;;19.27;6.23;;;;;;;;;;5072244;28;20426;-75
2022/02/13 12:40:23;;;;;;;21.90;7.27;;;;;;;;;;5073124;28;20413;-75
2022/02/13 12:42:53;;;;;;;18.33;6.50;;;;;;;;;;5072132;28;20888;-75
2022/02/13 12:45:24;;;;;;;15.10;5.60;;;;;;;;;;5072411;28;20448;-75
2022/02/13 12:47:52;;;;;;;21.97;7.30;;;;;;;;;;5070865;28;20428;-75
2022/02/13 12:50:20;;;;;;;14.43;6.67;;;;;;;;;;5072102;28;20411;-75
2022/02/13 12:52:46;;;;;;;14.50;5.97;;;;;;;;;;5072232;28;20428;-75
2022/02/13 12:55:12;;;;;;;19.07;6.30;;;;;;;;;;5076422;28;20428;-75
2022/02/13 12:57:39;;;;;;;19.67;6.93;;;;;;;;;;5093020;28;20399;-75
2022/02/13 13:00:06;;;;;;;17.77;7.03;;;;;;;;;;5076056;28;20437;-75
2022/02/13 13:02:32;;;;;;;42.80;11.10;;;;;;;;;;5079540;28;20439;-75
2022/02/13 13:05:17;;;;;;;14.70;6.10;;;;;;;;;;5078891;28;20856;-76
2022/02/13 13:07:43;;;;;;;15.57;6.40;;;;;;;;;;5081087;28;20433;-75
2022/02/13 13:10:27;;;;;;;23.97;6.73;;;;;;;;;;5087999;28;20416;-72
2022/02/13 13:13:20;;;;;;;14.03;5.80;;;10.70;1.00;;;;;;5076733;28;20579;-72
2022/02/13 13:15:55;;;;;;;15.97;5.83;;;;;;;;;;5009264;28;20435;-72
2022/02/13 13:18:34;;;;;;;20.87;6.60;;;;;;;;;;5011165;28;20938;-72
2022/02/13 13:21:20;;;;;;;11.20;5.40;;;;;;;;;;4998494;28;20435;-72
2022/02/13 13:24:03;;;;;;;12.17;5.30;;;;;;;;;;4985585;28;20421;-72
2022/02/13 13:26:30;;;;;;;17.27;6.23;;;;;;;;;;4999731;28;20440;-72
2022/02/13 13:28:56;;;;;;;15.00;5.77;;;;;;;;;;5012875;28;20416;-72
2022/02/13 13:31:22;;;;;;;98.87;15.53;;;;;;;;;;5002123;28;20471;-72
2022/02/13 13:33:49;;;;;;;22.20;6.00;;;;;;;;;;5009442;28;20431;-73
2022/02/13 13:36:28;;;;;;;29.50;7.80;;;;;;;;;;5010461;28;20592;-71
2022/02/13 13:38:54;;;;;;;16.87;5.33;;;;;;;;;;5007505;28;20991;-75
2022/02/13 13:41:30;;;;;;;24.20;6.53;;;;;;;;;;5013231;28;20736;-75
2022/02/13 13:43:56;;;;;;;10.70;4.87;;;;;;;;;;5013090;28;20394;-75
2022/02/13 13:46:26;;;;;;;22.13;6.90;;;;;;;;;;4998989;28;20456;-75
2022/02/13 13:48:52;;;;;;;14.23;5.00;;;;;;;;;;5012969;28;20926;-76
2022/02/13 13:51:18;;;;;;;41.37;7.43;;;;;;;;;;5012609;28;20483;-75
2022/02/13 13:53:45;;;;;;;15.23;4.60;;;;;;;;;;5074662;28;20491;-75
2022/02/13 13:56:11;;;;;;;17.50;4.00;;;;;;;;;;5079983;28;20482;-75
2022/02/13 13:58:37;;;;;;;12.57;4.13;;;;;;;;;;5077830;28;20787;-75
2022/02/13 14:01:03;;;;;;;12.73;4.33;;;;;;;;;;5074837;28;20385;-76
2022/02/13 14:03:29;;;;;;;16.87;4.80;;;;;;;;;;5081524;28;20416;-76
2022/02/13 14:05:55;;;;;;;11.17;4.30;;;;;;;;;;5077960;28;20481;-76
2022/02/13 14:08:21;;;;;;;14.10;4.57;;;;;;;;;;5074486;28;20455;-74
2022/02/13 14:10:47;;;;;;;14.33;5.10;;;;;;;;;;5091708;28;20439;-76
2022/02/13 14:13:13;;;;;;;15.60;4.10;;;;;;;;;;5083149;28;20428;-75
2022/02/13 14:15:41;;;;;;;13.10;4.90;;;;;;;;;;5074521;28;20413;-75
2022/02/13 14:18:07;;;;;;;14.63;4.97;;;;;;;;;;5074560;28;20511;-75
2022/02/13 14:20:33;;;;;;;13.30;4.67;;;;;;;;;;5074261;28;20497;-75
2022/02/13 14:23:00;;;;;;;19.20;5.17;;;;;;;;;;5074356;28;20436;-75
2022/02/13 14:25:26;;;;;;;11.10;3.63;;;;;;;;;;5074415;28;20449;-74
2022/02/13 14:27:52;;;;;;;20.67;5.53;;;;;;;;;;5081721;28;20395;-71
2022/02/13 14:30:18;;;;;;;10.87;4.07;;;;;;;;;;5087684;28;20384;-72